Nekoosa, Wisconsin
Current Conditions -  °F | °C
As of 4:08 AM on Sunday 23 Nov 2014 (Local Time) from KISW Reporting Station
Haze Haze  
Wind Chill: 45°   Ceiling: 600
Heat Index: 49°   Visibility: 2.5mi
Dew Point: 47°   Wind: 10mph
Humidity: 93%   Direction: 190°S
Pressure: 29.61"   Gusts: NA
Location:  44.31°N, 89.9°W
Report Text: KISW 231008Z AUTO 19009KT 2 1/2SM BR OVC006 09/08 A2961 RMK AO2 CIG 004V009 T00940083 $
Loading
Personal Weather Stations






























Interactive Weather Map New forecast layout! Learn more

10-Day Weather Forecast

Advertisements
Track Severe Weather on mobile